sensor_id;sensor_type;location;lat;lon;timestamp;P1;durP1;ratioP1;P2;durP2;ratioP2
53927;SDS011;39837;47.630;18.822;2023-02-28T00:01:28;3.58;;;3.25;;
53927;SDS011;39837;47.630;18.822;2023-02-28T00:04:13;3.67;;;3.38;;
53927;SDS011;39837;47.630;18.822;2023-02-28T00:06:57;8.60;;;4.45;;
53927;SDS011;39837;47.630;18.822;2023-02-28T00:09:41;4.18;;;3.22;;
53927;SDS011;39837;47.630;18.822;2023-02-28T00:12:25;7.65;;;6.00;;
53927;SDS011;39837;47.630;18.822;2023-02-28T00:15:10;2.20;;;2.10;;
53927;SDS011;39837;47.630;18.822;2023-02-28T00:17:54;5.55;;;5.05;;
53927;SDS011;39837;47.630;18.822;2023-02-28T00:20:39;5.75;;;3.83;;
53927;SDS011;39837;47.630;18.822;2023-02-28T00:23:23;5.18;;;4.10;;
53927;SDS011;39837;47.630;18.822;2023-02-28T00:26:07;4.82;;;4.45;;
53927;SDS011;39837;47.630;18.822;2023-02-28T00:28:52;4.97;;;4.20;;
53927;SDS011;39837;47.630;18.822;2023-02-28T00:31:36;4.13;;;3.83;;
53927;SDS011;39837;47.630;18.822;2023-02-28T00:34:20;9.88;;;4.43;;
53927;SDS011;39837;47.630;18.822;2023-02-28T00:37:05;3.42;;;3.13;;
53927;SDS011;39837;47.630;18.822;2023-02-28T00:39:50;5.68;;;4.22;;
53927;SDS011;39837;47.630;18.822;2023-02-28T00:42:34;4.03;;;3.67;;
53927;SDS011;39837;47.630;18.822;2023-02-28T00:45:19;9.60;;;4.53;;
53927;SDS011;39837;47.630;18.822;2023-02-28T00:48:03;3.63;;;3.22;;
53927;SDS011;39837;47.630;18.822;2023-02-28T00:50:48;6.47;;;3.55;;
53927;SDS011;39837;47.630;18.822;2023-02-28T00:53:33;6.25;;;3.35;;
53927;SDS011;39837;47.630;18.822;2023-02-28T00:56:17;3.95;;;3.47;;
53927;SDS011;39837;47.630;18.822;2023-02-28T00:59:01;3.20;;;2.78;;
53927;SDS011;39837;47.630;18.822;2023-02-28T01:01:46;5.18;;;4.15;;
53927;SDS011;39837;47.630;18.822;2023-02-28T01:04:30;6.07;;;4.45;;
53927;SDS011;39837;47.630;18.822;2023-02-28T01:07:14;11.25;;;4.93;;
53927;SDS011;39837;47.630;18.822;2023-02-28T01:09:58;5.80;;;4.28;;
53927;SDS011;39837;47.630;18.822;2023-02-28T01:12:42;5.00;;;3.88;;
53927;SDS011;39837;47.630;18.822;2023-02-28T01:15:27;5.13;;;3.60;;
53927;SDS011;39837;47.630;18.822;2023-02-28T01:18:11;3.75;;;3.50;;
53927;SDS011;39837;47.630;18.822;2023-02-28T01:20:55;3.38;;;2.95;;
53927;SDS011;39837;47.630;18.822;2023-02-28T01:23:39;7.20;;;2.83;;
53927;SDS011;39837;47.630;18.822;2023-02-28T01:26:24;4.28;;;3.28;;
53927;SDS011;39837;47.630;18.822;2023-02-28T01:29:08;2.97;;;2.60;;
53927;SDS011;39837;47.630;18.822;2023-02-28T01:31:53;3.58;;;3.28;;
53927;SDS011;39837;47.630;18.822;2023-02-28T01:34:37;3.35;;;2.42;;
53927;SDS011;39837;47.630;18.822;2023-02-28T01:37:21;8.35;;;3.55;;
53927;SDS011;39837;47.630;18.822;2023-02-28T01:40:04;3.15;;;2.72;;
53927;SDS011;39837;47.630;18.822;2023-02-28T01:42:49;2.33;;;2.22;;
53927;SDS011;39837;47.630;18.822;2023-02-28T01:45:33;3.47;;;3.10;;
53927;SDS011;39837;47.630;18.822;2023-02-28T01:51:05;2.47;;;2.28;;
53927;SDS011;39837;47.630;18.822;2023-02-28T01:54:00;3.90;;;2.60;;
53927;SDS011;39837;47.630;18.822;2023-02-28T01:56:52;2.92;;;2.58;;
53927;SDS011;39837;47.630;18.822;2023-02-28T01:59:47;3.33;;;2.70;;
53927;SDS011;39837;47.630;18.822;2023-02-28T02:02:36;3.90;;;3.25;;
53927;SDS011;39837;47.630;18.822;2023-02-28T02:05:24;3.63;;;3.30;;
53927;SDS011;39837;47.630;18.822;2023-02-28T02:08:11;3.20;;;2.60;;
53927;SDS011;39837;47.630;18.822;2023-02-28T02:10:57;2.95;;;2.38;;
53927;SDS011;39837;47.630;18.822;2023-02-28T02:33:00;2.05;;;1.90;;
53927;SDS011;39837;47.630;18.822;2023-02-28T02:38:46;8.02;;;3.40;;
53927;SDS011;39837;47.630;18.822;2023-02-28T02:41:36;12.68;;;3.15;;
53927;SDS011;39837;47.630;18.822;2023-02-28T02:44:30;3.00;;;2.58;;
53927;SDS011;39837;47.630;18.822;2023-02-28T02:47:20;3.80;;;2.80;;
53927;SDS011;39837;47.630;18.822;2023-02-28T02:50:08;4.00;;;3.00;;
53927;SDS011;39837;47.630;18.822;2023-02-28T02:53:00;4.53;;;3.10;;
53927;SDS011;39837;47.630;18.822;2023-02-28T02:58:31;4.38;;;3.05;;
53927;SDS011;39837;47.630;18.822;2023-02-28T03:01:20;5.18;;;3.00;;
53927;SDS011;39837;47.630;18.822;2023-02-28T03:04:12;4.03;;;2.90;;
53927;SDS011;39837;47.630;18.822;2023-02-28T03:07:00;3.63;;;2.97;;
53927;SDS011;39837;47.630;18.822;2023-02-28T03:09:51;2.78;;;2.53;;
53927;SDS011;39837;47.630;18.822;2023-02-28T03:12:40;6.75;;;3.03;;
53927;SDS011;39837;47.630;18.822;2023-02-28T03:15:30;4.82;;;3.33;;
53927;SDS011;39837;47.630;18.822;2023-02-28T03:21:27;3.20;;;2.70;;
53927;SDS011;39837;47.630;18.822;2023-02-28T03:24:19;3.15;;;2.90;;
53927;SDS011;39837;47.630;18.822;2023-02-28T03:33:42;4.10;;;2.85;;
53927;SDS011;39837;47.630;18.822;2023-02-28T03:36:30;15.25;;;3.65;;
53927;SDS011;39837;47.630;18.822;2023-02-28T03:39:18;4.10;;;3.30;;
53927;SDS011;39837;47.630;18.822;2023-02-28T03:42:12;2.75;;;2.55;;
53927;SDS011;39837;47.630;18.822;2023-02-28T03:45:00;7.85;;;3.00;;
53927;SDS011;39837;47.630;18.822;2023-02-28T03:47:55;2.85;;;2.72;;
53927;SDS011;39837;47.630;18.822;2023-02-28T03:50:46;3.17;;;2.88;;
53927;SDS011;39837;47.630;18.822;2023-02-28T03:53:36;2.00;;;1.90;;
53927;SDS011;39837;47.630;18.822;2023-02-28T03:56:34;3.78;;;2.88;;
53927;SDS011;39837;47.630;18.822;2023-02-28T03:59:28;2.75;;;2.50;;
53927;SDS011;39837;47.630;18.822;2023-02-28T04:02:21;3.45;;;2.70;;
53927;SDS011;39837;47.630;18.822;2023-02-28T04:05:05;4.57;;;3.17;;
53927;SDS011;39837;47.630;18.822;2023-02-28T04:07:50;3.60;;;2.83;;
53927;SDS011;39837;47.630;18.822;2023-02-28T04:10:34;2.53;;;2.33;;
53927;SDS011;39837;47.630;18.822;2023-02-28T04:13:18;3.97;;;2.55;;
53927;SDS011;39837;47.630;18.822;2023-02-28T04:16:06;5.95;;;3.03;;
53927;SDS011;39837;47.630;18.822;2023-02-28T04:18:56;3.50;;;3.17;;
53927;SDS011;39837;47.630;18.822;2023-02-28T04:21:52;8.98;;;3.15;;
53927;SDS011;39837;47.630;18.822;2023-02-28T04:24:37;2.53;;;2.33;;
53927;SDS011;39837;47.630;18.822;2023-02-28T04:27:24;2.90;;;2.70;;
53927;SDS011;39837;47.630;18.822;2023-02-28T04:30:09;6.47;;;3.08;;
53927;SDS011;39837;47.630;18.822;2023-02-28T04:32:54;3.03;;;2.75;;
53927;SDS011;39837;47.630;18.822;2023-02-28T04:35:37;2.75;;;2.55;;
53927;SDS011;39837;47.630;18.822;2023-02-28T04:38:22;3.92;;;3.53;;
53927;SDS011;39837;47.630;18.822;2023-02-28T04:41:06;4.20;;;2.90;;
53927;SDS011;39837;47.630;18.822;2023-02-28T04:43:53;2.85;;;2.60;;
53927;SDS011;39837;47.630;18.822;2023-02-28T04:46:36;3.08;;;2.88;;
53927;SDS011;39837;47.630;18.822;2023-02-28T04:49:21;2.00;;;1.90;;
53927;SDS011;39837;47.630;18.822;2023-02-28T04:52:05;3.33;;;3.03;;
53927;SDS011;39837;47.630;18.822;2023-02-28T04:54:51;4.97;;;3.10;;
53927;SDS011;39837;47.630;18.822;2023-02-28T04:57:35;5.22;;;4.05;;
53927;SDS011;39837;47.630;18.822;2023-02-28T05:00:19;3.13;;;2.47;;
53927;SDS011;39837;47.630;18.822;2023-02-28T05:03:03;4.25;;;3.03;;
53927;SDS011;39837;47.630;18.822;2023-02-28T05:05:48;5.75;;;3.22;;
53927;SDS011;39837;47.630;18.822;2023-02-28T05:08:32;9.98;;;3.78;;
53927;SDS011;39837;47.630;18.822;2023-02-28T05:11:21;3.15;;;2.60;;
53927;SDS011;39837;47.630;18.822;2023-02-28T05:14:13;2.38;;;2.17;;
53927;SDS011;39837;47.630;18.822;2023-02-28T05:16:57;2.72;;;2.53;;
53927;SDS011;39837;47.630;18.822;2023-02-28T05:19:41;5.60;;;2.85;;
53927;SDS011;39837;47.630;18.822;2023-02-28T05:22:26;2.95;;;2.67;;
53927;SDS011;39837;47.630;18.822;2023-02-28T05:25:15;5.85;;;3.22;;
53927;SDS011;39837;47.630;18.822;2023-02-28T05:28:00;3.97;;;3.47;;
53927;SDS011;39837;47.630;18.822;2023-02-28T05:30:45;2.13;;;1.92;;
53927;SDS011;39837;47.630;18.822;2023-02-28T05:33:29;3.60;;;3.28;;
53927;SDS011;39837;47.630;18.822;2023-02-28T05:36:13;3.60;;;3.00;;
53927;SDS011;39837;47.630;18.822;2023-02-28T05:38:57;2.65;;;2.08;;
53927;SDS011;39837;47.630;18.822;2023-02-28T05:41:42;3.72;;;3.08;;
53927;SDS011;39837;47.630;18.822;2023-02-28T05:44:26;4.18;;;3.20;;
53927;SDS011;39837;47.630;18.822;2023-02-28T05:47:10;4.82;;;3.63;;
53927;SDS011;39837;47.630;18.822;2023-02-28T05:49:56;11.52;;;2.80;;
53927;SDS011;39837;47.630;18.822;2023-02-28T05:52:40;5.55;;;3.53;;
53927;SDS011;39837;47.630;18.822;2023-02-28T05:55:24;4.15;;;3.53;;
53927;SDS011;39837;47.630;18.822;2023-02-28T05:58:08;5.43;;;3.38;;
53927;SDS011;39837;47.630;18.822;2023-02-28T06:00:52;7.63;;;3.65;;
53927;SDS011;39837;47.630;18.822;2023-02-28T06:03:36;4.55;;;3.83;;
53927;SDS011;39837;47.630;18.822;2023-02-28T06:06:20;5.60;;;3.38;;
53927;SDS011;39837;47.630;18.822;2023-02-28T06:09:04;5.22;;;3.88;;
53927;SDS011;39837;47.630;18.822;2023-02-28T06:11:49;7.82;;;4.35;;
53927;SDS011;39837;47.630;18.822;2023-02-28T06:14:33;6.10;;;3.92;;
53927;SDS011;39837;47.630;18.822;2023-02-28T06:17:17;12.32;;;3.97;;
53927;SDS011;39837;47.630;18.822;2023-02-28T06:20:01;5.53;;;3.92;;
53927;SDS011;39837;47.630;18.822;2023-02-28T06:22:45;3.78;;;3.38;;
53927;SDS011;39837;47.630;18.822;2023-02-28T06:25:29;4.55;;;3.65;;
53927;SDS011;39837;47.630;18.822;2023-02-28T06:28:13;3.97;;;3.38;;
53927;SDS011;39837;47.630;18.822;2023-02-28T06:30:57;6.97;;;3.45;;
53927;SDS011;39837;47.630;18.822;2023-02-28T06:33:42;5.30;;;3.90;;
53927;SDS011;39837;47.630;18.822;2023-02-28T06:36:27;5.13;;;4.30;;
53927;SDS011;39837;47.630;18.822;2023-02-28T06:39:11;12.48;;;7.78;;
53927;SDS011;39837;47.630;18.822;2023-02-28T06:41:55;30.90;;;15.15;;
53927;SDS011;39837;47.630;18.822;2023-02-28T06:44:39;12.35;;;7.22;;
53927;SDS011;39837;47.630;18.822;2023-02-28T06:47:23;16.05;;;7.70;;
53927;SDS011;39837;47.630;18.822;2023-02-28T06:50:09;16.55;;;11.07;;
53927;SDS011;39837;47.630;18.822;2023-02-28T06:52:54;9.25;;;6.22;;
53927;SDS011;39837;47.630;18.822;2023-02-28T06:55:39;5.32;;;4.68;;
53927;SDS011;39837;47.630;18.822;2023-02-28T06:58:23;15.85;;;3.78;;
53927;SDS011;39837;47.630;18.822;2023-02-28T07:01:08;7.00;;;4.75;;
53927;SDS011;39837;47.630;18.822;2023-02-28T07:03:52;4.75;;;4.30;;
53927;SDS011;39837;47.630;18.822;2023-02-28T07:06:36;5.35;;;3.83;;
53927;SDS011;39837;47.630;18.822;2023-02-28T07:09:20;8.45;;;5.13;;
53927;SDS011;39837;47.630;18.822;2023-02-28T07:12:04;7.40;;;4.40;;
53927;SDS011;39837;47.630;18.822;2023-02-28T07:14:49;4.07;;;3.67;;
53927;SDS011;39837;47.630;18.822;2023-02-28T07:17:34;15.13;;;4.43;;
53927;SDS011;39837;47.630;18.822;2023-02-28T07:20:18;6.45;;;4.15;;
53927;SDS011;39837;47.630;18.822;2023-02-28T07:23:03;9.05;;;6.63;;
53927;SDS011;39837;47.630;18.822;2023-02-28T07:25:47;5.90;;;4.65;;
53927;SDS011;39837;47.630;18.822;2023-02-28T07:28:32;5.15;;;4.43;;
53927;SDS011;39837;47.630;18.822;2023-02-28T07:31:16;6.32;;;4.88;;
53927;SDS011;39837;47.630;18.822;2023-02-28T07:34:01;4.72;;;4.32;;
53927;SDS011;39837;47.630;18.822;2023-02-28T07:36:46;9.90;;;6.90;;
53927;SDS011;39837;47.630;18.822;2023-02-28T07:39:30;4.35;;;4.00;;
53927;SDS011;39837;47.630;18.822;2023-02-28T07:42:14;3.03;;;2.75;;
53927;SDS011;39837;47.630;18.822;2023-02-28T07:44:58;3.90;;;3.58;;
53927;SDS011;39837;47.630;18.822;2023-02-28T07:47:42;3.42;;;3.22;;
53927;SDS011;39837;47.630;18.822;2023-02-28T07:50:27;9.43;;;5.30;;
53927;SDS011;39837;47.630;18.822;2023-02-28T07:53:15;4.63;;;3.50;;
53927;SDS011;39837;47.630;18.822;2023-02-28T07:56:00;4.55;;;2.85;;
53927;SDS011;39837;47.630;18.822;2023-02-28T07:58:45;3.38;;;2.65;;
53927;SDS011;39837;47.630;18.822;2023-02-28T08:01:29;4.57;;;3.33;;
53927;SDS011;39837;47.630;18.822;2023-02-28T08:04:13;2.70;;;2.50;;
53927;SDS011;39837;47.630;18.822;2023-02-28T08:06:57;4.03;;;3.63;;
53927;SDS011;39837;47.630;18.822;2023-02-28T08:09:41;3.58;;;2.95;;
53927;SDS011;39837;47.630;18.822;2023-02-28T08:12:26;3.13;;;2.83;;
53927;SDS011;39837;47.630;18.822;2023-02-28T08:15:10;8.02;;;2.90;;
53927;SDS011;39837;47.630;18.822;2023-02-28T08:17:54;3.72;;;3.42;;
53927;SDS011;39837;47.630;18.822;2023-02-28T08:20:40;3.20;;;3.00;;
53927;SDS011;39837;47.630;18.822;2023-02-28T08:23:24;3.67;;;3.38;;
53927;SDS011;39837;47.630;18.822;2023-02-28T08:26:08;3.17;;;2.90;;
53927;SDS011;39837;47.630;18.822;2023-02-28T08:28:53;3.33;;;2.83;;
53927;SDS011;39837;47.630;18.822;2023-02-28T08:31:37;4.38;;;3.85;;
53927;SDS011;39837;47.630;18.822;2023-02-28T08:34:21;7.68;;;3.28;;
53927;SDS011;39837;47.630;18.822;2023-02-28T08:37:06;4.63;;;3.38;;
53927;SDS011;39837;47.630;18.822;2023-02-28T08:39:50;3.63;;;3.08;;
53927;SDS011;39837;47.630;18.822;2023-02-28T08:42:35;5.97;;;3.05;;
53927;SDS011;39837;47.630;18.822;2023-02-28T08:45:19;3.65;;;3.35;;
53927;SDS011;39837;47.630;18.822;2023-02-28T08:48:03;3.33;;;3.03;;
53927;SDS011;39837;47.630;18.822;2023-02-28T08:50:54;3.67;;;2.90;;
53927;SDS011;39837;47.630;18.822;2023-02-28T08:53:42;9.73;;;2.42;;
53927;SDS011;39837;47.630;18.822;2023-02-28T08:56:27;3.92;;;3.25;;
53927;SDS011;39837;47.630;18.822;2023-02-28T08:59:11;3.60;;;3.25;;
53927;SDS011;39837;47.630;18.822;2023-02-28T09:01:55;4.85;;;3.08;;
53927;SDS011;39837;47.630;18.822;2023-02-28T09:04:40;4.45;;;3.55;;
53927;SDS011;39837;47.630;18.822;2023-02-28T09:07:24;3.53;;;3.17;;
53927;SDS011;39837;47.630;18.822;2023-02-28T09:10:09;3.20;;;2.80;;
53927;SDS011;39837;47.630;18.822;2023-02-28T09:12:54;3.10;;;2.78;;
53927;SDS011;39837;47.630;18.822;2023-02-28T09:15:38;3.25;;;3.03;;
53927;SDS011;39837;47.630;18.822;2023-02-28T09:18:22;5.68;;;3.75;;
53927;SDS011;39837;47.630;18.822;2023-02-28T09:21:07;3.72;;;3.53;;
53927;SDS011;39837;47.630;18.822;2023-02-28T09:23:52;6.93;;;4.25;;
53927;SDS011;39837;47.630;18.822;2023-02-28T09:26:37;3.65;;;3.35;;
53927;SDS011;39837;47.630;18.822;2023-02-28T09:29:21;4.05;;;3.67;;
53927;SDS011;39837;47.630;18.822;2023-02-28T09:32:05;14.60;;;4.13;;
53927;SDS011;39837;47.630;18.822;2023-02-28T09:34:49;4.05;;;3.75;;
53927;SDS011;39837;47.630;18.822;2023-02-28T09:37:34;5.45;;;4.38;;
53927;SDS011;39837;47.630;18.822;2023-02-28T09:40:18;3.92;;;3.70;;
53927;SDS011;39837;47.630;18.822;2023-02-28T09:43:04;6.07;;;3.80;;
53927;SDS011;39837;47.630;18.822;2023-02-28T09:45:53;2.70;;;2.60;;
53927;SDS011;39837;47.630;18.822;2023-02-28T09:48:45;5.80;;;4.60;;
53927;SDS011;39837;47.630;18.822;2023-02-28T09:51:33;6.78;;;3.78;;
53927;SDS011;39837;47.630;18.822;2023-02-28T09:54:26;10.82;;;3.65;;
53927;SDS011;39837;47.630;18.822;2023-02-28T10:09:02;3.75;;;3.22;;
53927;SDS011;39837;47.630;18.822;2023-02-28T10:11:48;2.75;;;2.65;;
53927;SDS011;39837;47.630;18.822;2023-02-28T10:14:34;4.95;;;4.20;;
53927;SDS011;39837;47.630;18.822;2023-02-28T10:17:20;4.47;;;3.92;;
53927;SDS011;39837;47.630;18.822;2023-02-28T10:20:12;2.88;;;2.67;;
53927;SDS011;39837;47.630;18.822;2023-02-28T10:23:11;2.13;;;2.13;;
53927;SDS011;39837;47.630;18.822;2023-02-28T10:26:05;7.78;;;2.40;;
53927;SDS011;39837;47.630;18.822;2023-02-28T10:28:56;2.85;;;2.67;;
53927;SDS011;39837;47.630;18.822;2023-02-28T10:31:40;3.22;;;2.22;;
53927;SDS011;39837;47.630;18.822;2023-02-28T10:34:24;2.50;;;1.92;;
53927;SDS011;39837;47.630;18.822;2023-02-28T10:37:08;2.60;;;2.50;;
53927;SDS011;39837;47.630;18.822;2023-02-28T10:39:54;3.92;;;3.70;;
53927;SDS011;39837;47.630;18.822;2023-02-28T10:42:38;3.22;;;2.33;;
53927;SDS011;39837;47.630;18.822;2023-02-28T10:45:22;2.25;;;2.15;;
53927;SDS011;39837;47.630;18.822;2023-02-28T10:48:29;2.53;;;2.42;;
53927;SDS011;39837;47.630;18.822;2023-02-28T10:51:14;4.07;;;3.17;;
53927;SDS011;39837;47.630;18.822;2023-02-28T10:54:00;3.40;;;3.15;;
53927;SDS011;39837;47.630;18.822;2023-02-28T10:56:44;3.08;;;2.70;;
53927;SDS011;39837;47.630;18.822;2023-02-28T10:59:29;6.05;;;2.53;;
53927;SDS011;39837;47.630;18.822;2023-02-28T11:02:34;2.58;;;2.38;;
53927;SDS011;39837;47.630;18.822;2023-02-28T11:08:14;20.98;;;3.53;;
53927;SDS011;39837;47.630;18.822;2023-02-28T11:11:01;2.60;;;2.47;;
53927;SDS011;39837;47.630;18.822;2023-02-28T11:13:50;2.05;;;1.95;;
53927;SDS011;39837;47.630;18.822;2023-02-28T11:16:37;5.50;;;3.55;;
53927;SDS011;39837;47.630;18.822;2023-02-28T11:19:22;1.98;;;1.88;;
53927;SDS011;39837;47.630;18.822;2023-02-28T11:22:09;4.63;;;4.20;;
53927;SDS011;39837;47.630;18.822;2023-02-28T11:24:55;2.80;;;2.65;;
53927;SDS011;39837;47.630;18.822;2023-02-28T11:27:46;2.72;;;2.63;;
53927;SDS011;39837;47.630;18.822;2023-02-28T11:30:38;3.17;;;2.97;;
53927;SDS011;39837;47.630;18.822;2023-02-28T11:36:19;2.55;;;2.45;;
53927;SDS011;39837;47.630;18.822;2023-02-28T11:39:09;2.10;;;2.00;;
53927;SDS011;39837;47.630;18.822;2023-02-28T11:45:22;2.38;;;2.22;;
53927;SDS011;39837;47.630;18.822;2023-02-28T11:51:17;3.15;;;2.95;;
53927;SDS011;39837;47.630;18.822;2023-02-28T11:56:54;3.45;;;3.25;;
53927;SDS011;39837;47.630;18.822;2023-02-28T12:02:52;2.83;;;2.67;;
53927;SDS011;39837;47.630;18.822;2023-02-28T12:09:04;2.03;;;1.92;;
53927;SDS011;39837;47.630;18.822;2023-02-28T12:15:36;2.70;;;2.60;;
53927;SDS011;39837;47.630;18.822;2023-02-28T12:18:28;2.50;;;2.30;;
53927;SDS011;39837;47.630;18.822;2023-02-28T12:27:15;3.63;;;3.33;;
53927;SDS011;39837;47.630;18.822;2023-02-28T12:30:05;3.58;;;3.38;;
53927;SDS011;39837;47.630;18.822;2023-02-28T12:33:02;3.45;;;3.25;;
53927;SDS011;39837;47.630;18.822;2023-02-28T12:35:49;2.30;;;2.20;;
53927;SDS011;39837;47.630;18.822;2023-02-28T12:38:47;5.15;;;3.60;;
53927;SDS011;39837;47.630;18.822;2023-02-28T12:42:07;4.75;;;3.20;;
53927;SDS011;39837;47.630;18.822;2023-02-28T12:44:59;2.15;;;2.05;;
53927;SDS011;39837;47.630;18.822;2023-02-28T12:47:48;4.38;;;3.70;;
53927;SDS011;39837;47.630;18.822;2023-02-28T12:50:35;3.40;;;2.78;;
53927;SDS011;39837;47.630;18.822;2023-02-28T12:57:04;4.10;;;3.70;;
53927;SDS011;39837;47.630;18.822;2023-02-28T13:00:10;3.40;;;3.05;;
53927;SDS011;39837;47.630;18.822;2023-02-28T13:11:47;2.67;;;2.53;;
53927;SDS011;39837;47.630;18.822;2023-02-28T13:17:19;3.05;;;2.85;;
53927;SDS011;39837;47.630;18.822;2023-02-28T13:20:14;2.45;;;2.35;;
53927;SDS011;39837;47.630;18.822;2023-02-28T13:22:59;3.00;;;2.90;;
53927;SDS011;39837;47.630;18.822;2023-02-28T13:37:37;4.20;;;3.50;;
53927;SDS011;39837;47.630;18.822;2023-02-28T13:40:31;3.35;;;2.63;;
53927;SDS011;39837;47.630;18.822;2023-02-28T13:43:20;4.03;;;3.60;;
53927;SDS011;39837;47.630;18.822;2023-02-28T13:46:11;4.47;;;3.55;;
53927;SDS011;39837;47.630;18.822;2023-02-28T13:48:56;4.78;;;2.95;;
53927;SDS011;39837;47.630;18.822;2023-02-28T13:51:44;2.63;;;2.30;;
53927;SDS011;39837;47.630;18.822;2023-02-28T14:06:48;4.63;;;3.38;;
53927;SDS011;39837;47.630;18.822;2023-02-28T14:09:34;3.92;;;3.63;;
53927;SDS011;39837;47.630;18.822;2023-02-28T14:15:41;3.53;;;3.33;;
53927;SDS011;39837;47.630;18.822;2023-02-28T14:18:32;3.50;;;3.20;;
53927;SDS011;39837;47.630;18.822;2023-02-28T14:21:22;4.00;;;3.17;;
53927;SDS011;39837;47.630;18.822;2023-02-28T14:36:43;4.03;;;3.63;;
53927;SDS011;39837;47.630;18.822;2023-02-28T14:39:28;10.35;;;3.38;;
53927;SDS011;39837;47.630;18.822;2023-02-28T14:42:27;5.32;;;4.07;;
53927;SDS011;39837;47.630;18.822;2023-02-28T14:45:19;2.85;;;2.72;;
53927;SDS011;39837;47.630;18.822;2023-02-28T14:48:04;5.47;;;3.10;;
53927;SDS011;39837;47.630;18.822;2023-02-28T14:50:54;4.68;;;3.83;;
53927;SDS011;39837;47.630;18.822;2023-02-28T14:53:40;7.40;;;3.25;;
53927;SDS011;39837;47.630;18.822;2023-02-28T14:56:30;14.50;;;3.53;;
53927;SDS011;39837;47.630;18.822;2023-02-28T14:59:22;8.45;;;3.92;;
53927;SDS011;39837;47.630;18.822;2023-02-28T15:02:22;4.00;;;3.63;;
53927;SDS011;39837;47.630;18.822;2023-02-28T15:08:22;3.28;;;3.10;;
53927;SDS011;39837;47.630;18.822;2023-02-28T15:11:09;3.70;;;3.08;;
53927;SDS011;39837;47.630;18.822;2023-02-28T15:14:00;5.50;;;4.97;;
53927;SDS011;39837;47.630;18.822;2023-02-28T15:16:44;8.70;;;4.20;;
53927;SDS011;39837;47.630;18.822;2023-02-28T15:19:34;3.95;;;3.47;;
53927;SDS011;39837;47.630;18.822;2023-02-28T15:22:24;4.28;;;3.38;;
53927;SDS011;39837;47.630;18.822;2023-02-28T15:25:18;4.95;;;3.55;;
53927;SDS011;39837;47.630;18.822;2023-02-28T15:28:04;4.68;;;4.10;;
53927;SDS011;39837;47.630;18.822;2023-02-28T15:30:53;4.95;;;4.55;;
53927;SDS011;39837;47.630;18.822;2023-02-28T15:33:54;5.13;;;4.35;;
53927;SDS011;39837;47.630;18.822;2023-02-28T15:36:40;3.38;;;3.08;;
53927;SDS011;39837;47.630;18.822;2023-02-28T15:39:25;7.00;;;4.68;;
53927;SDS011;39837;47.630;18.822;2023-02-28T15:42:16;9.63;;;5.40;;
53927;SDS011;39837;47.630;18.822;2023-02-28T15:45:02;6.63;;;4.03;;
53927;SDS011;39837;47.630;18.822;2023-02-28T15:47:47;3.95;;;3.58;;
53927;SDS011;39837;47.630;18.822;2023-02-28T15:50:31;5.68;;;3.63;;
53927;SDS011;39837;47.630;18.822;2023-02-28T15:53:16;5.45;;;3.45;;
53927;SDS011;39837;47.630;18.822;2023-02-28T15:56:06;2.88;;;2.67;;
53927;SDS011;39837;47.630;18.822;2023-02-28T15:59:01;7.45;;;3.80;;
53927;SDS011;39837;47.630;18.822;2023-02-28T16:01:46;5.10;;;3.88;;
53927;SDS011;39837;47.630;18.822;2023-02-28T16:04:31;4.15;;;3.78;;
53927;SDS011;39837;47.630;18.822;2023-02-28T16:07:15;9.63;;;5.72;;
53927;SDS011;39837;47.630;18.822;2023-02-28T16:10:00;7.40;;;4.57;;
53927;SDS011;39837;47.630;18.822;2023-02-28T16:12:44;8.63;;;3.83;;
53927;SDS011;39837;47.630;18.822;2023-02-28T16:15:28;9.93;;;6.25;;
53927;SDS011;39837;47.630;18.822;2023-02-28T16:18:14;8.52;;;5.95;;
53927;SDS011;39837;47.630;18.822;2023-02-28T16:20:58;5.90;;;5.18;;
53927;SDS011;39837;47.630;18.822;2023-02-28T16:23:43;6.03;;;4.93;;
53927;SDS011;39837;47.630;18.822;2023-02-28T16:26:27;32.50;;;10.13;;
53927;SDS011;39837;47.630;18.822;2023-02-28T16:29:18;25.48;;;13.13;;
53927;SDS011;39837;47.630;18.822;2023-02-28T16:32:07;16.25;;;8.98;;
53927;SDS011;39837;47.630;18.822;2023-02-28T16:34:52;11.07;;;6.00;;
53927;SDS011;39837;47.630;18.822;2023-02-28T16:37:35;10.63;;;6.97;;
53927;SDS011;39837;47.630;18.822;2023-02-28T16:40:22;6.35;;;5.15;;
53927;SDS011;39837;47.630;18.822;2023-02-28T16:43:30;6.82;;;4.78;;
53927;SDS011;39837;47.630;18.822;2023-02-28T16:46:13;5.55;;;5.05;;
53927;SDS011;39837;47.630;18.822;2023-02-28T16:48:58;6.95;;;5.25;;
53927;SDS011;39837;47.630;18.822;2023-02-28T16:51:42;13.77;;;5.60;;
53927;SDS011;39837;47.630;18.822;2023-02-28T16:54:26;10.48;;;5.03;;
53927;SDS011;39837;47.630;18.822;2023-02-28T16:57:20;14.60;;;4.70;;
53927;SDS011;39837;47.630;18.822;2023-02-28T17:00:07;6.50;;;5.13;;
53927;SDS011;39837;47.630;18.822;2023-02-28T17:02:55;17.70;;;6.55;;
53927;SDS011;39837;47.630;18.822;2023-02-28T17:05:39;12.27;;;6.45;;
53927;SDS011;39837;47.630;18.822;2023-02-28T17:08:24;19.30;;;5.63;;
53927;SDS011;39837;47.630;18.822;2023-02-28T17:11:08;23.73;;;7.78;;
53927;SDS011;39837;47.630;18.822;2023-02-28T17:13:52;28.70;;;8.68;;
53927;SDS011;39837;47.630;18.822;2023-02-28T17:16:39;23.73;;;10.35;;
53927;SDS011;39837;47.630;18.822;2023-02-28T17:19:24;19.73;;;8.43;;
53927;SDS011;39837;47.630;18.822;2023-02-28T17:22:08;15.48;;;8.32;;
53927;SDS011;39837;47.630;18.822;2023-02-28T17:24:54;9.75;;;6.60;;
53927;SDS011;39837;47.630;18.822;2023-02-28T17:27:42;7.60;;;6.10;;
53927;SDS011;39837;47.630;18.822;2023-02-28T17:30:26;13.88;;;8.73;;
53927;SDS011;39837;47.630;18.822;2023-02-28T17:33:11;8.70;;;6.97;;
53927;SDS011;39837;47.630;18.822;2023-02-28T17:35:55;9.13;;;5.78;;
53927;SDS011;39837;47.630;18.822;2023-02-28T17:38:40;7.60;;;4.78;;
53927;SDS011;39837;47.630;18.822;2023-02-28T17:41:25;7.47;;;5.97;;
53927;SDS011;39837;47.630;18.822;2023-02-28T17:44:14;12.48;;;5.05;;
53927;SDS011;39837;47.630;18.822;2023-02-28T17:47:00;7.63;;;5.72;;
53927;SDS011;39837;47.630;18.822;2023-02-28T17:49:46;16.52;;;5.32;;
53927;SDS011;39837;47.630;18.822;2023-02-28T17:52:30;9.10;;;5.07;;
53927;SDS011;39837;47.630;18.822;2023-02-28T17:55:19;6.70;;;4.03;;
53927;SDS011;39837;47.630;18.822;2023-02-28T17:58:04;5.30;;;4.80;;
53927;SDS011;39837;47.630;18.822;2023-02-28T18:00:48;5.85;;;4.85;;
53927;SDS011;39837;47.630;18.822;2023-02-28T18:03:38;7.40;;;5.35;;
53927;SDS011;39837;47.630;18.822;2023-02-28T18:06:25;6.57;;;5.95;;
53927;SDS011;39837;47.630;18.822;2023-02-28T18:09:14;12.38;;;7.47;;
53927;SDS011;39837;47.630;18.822;2023-02-28T18:12:00;22.65;;;9.73;;
53927;SDS011;39837;47.630;18.822;2023-02-28T18:14:44;10.05;;;6.47;;
53927;SDS011;39837;47.630;18.822;2023-02-28T18:17:28;15.63;;;7.00;;
53927;SDS011;39837;47.630;18.822;2023-02-28T18:20:13;13.52;;;8.23;;
53927;SDS011;39837;47.630;18.822;2023-02-28T18:22:58;16.85;;;9.45;;
53927;SDS011;39837;47.630;18.822;2023-02-28T18:25:42;14.95;;;8.25;;
53927;SDS011;39837;47.630;18.822;2023-02-28T18:28:27;8.23;;;5.70;;
53927;SDS011;39837;47.630;18.822;2023-02-28T18:31:14;11.35;;;7.50;;
53927;SDS011;39837;47.630;18.822;2023-02-28T18:34:00;8.73;;;6.55;;
53927;SDS011;39837;47.630;18.822;2023-02-28T18:36:45;10.43;;;6.90;;
53927;SDS011;39837;47.630;18.822;2023-02-28T18:39:31;11.45;;;7.80;;
53927;SDS011;39837;47.630;18.822;2023-02-28T18:42:15;13.45;;;7.57;;
53927;SDS011;39837;47.630;18.822;2023-02-28T18:44:59;10.45;;;7.57;;
53927;SDS011;39837;47.630;18.822;2023-02-28T18:47:44;8.23;;;5.93;;